sensor_id;sensor_type;location;lat;lon;timestamp;P1;durP1;ratioP1;P2;durP2;ratioP2
55037;SDS011;40937;53.594;10.034;2022-08-19T00:01:23;11.60;;;10.38;;
55037;SDS011;40937;53.594;10.034;2022-08-19T00:03:58;12.75;;;9.48;;
55037;SDS011;40937;53.594;10.034;2022-08-19T00:06:28;12.98;;;10.05;;
55037;SDS011;40937;53.594;10.034;2022-08-19T00:08:59;12.25;;;11.15;;
55037;SDS011;40937;53.594;10.034;2022-08-19T00:11:33;13.32;;;11.98;;
55037;SDS011;40937;53.594;10.034;2022-08-19T00:14:03;15.70;;;12.98;;
55037;SDS011;40937;53.594;10.034;2022-08-19T00:16:34;16.35;;;14.80;;
55037;SDS011;40937;53.594;10.034;2022-08-19T00:19:20;18.95;;;17.25;;
55037;SDS011;40937;53.594;10.034;2022-08-19T00:21:47;18.52;;;16.63;;
55037;SDS011;40937;53.594;10.034;2022-08-19T00:24:14;22.38;;;16.58;;
55037;SDS011;40937;53.594;10.034;2022-08-19T00:26:41;21.88;;;17.00;;
55037;SDS011;40937;53.594;10.034;2022-08-19T00:29:09;22.67;;;18.25;;
55037;SDS011;40937;53.594;10.034;2022-08-19T00:31:37;20.67;;;17.63;;
55037;SDS011;40937;53.594;10.034;2022-08-19T00:34:03;20.27;;;17.80;;
55037;SDS011;40937;53.594;10.034;2022-08-19T00:36:31;19.63;;;17.52;;
55037;SDS011;40937;53.594;10.034;2022-08-19T00:38:58;21.25;;;19.20;;
55037;SDS011;40937;53.594;10.034;2022-08-19T00:41:25;21.63;;;18.73;;
55037;SDS011;40937;53.594;10.034;2022-08-19T00:43:56;21.63;;;17.30;;
55037;SDS011;40937;53.594;10.034;2022-08-19T00:46:25;22.35;;;17.98;;
55037;SDS011;40937;53.594;10.034;2022-08-19T00:48:52;21.88;;;18.05;;
55037;SDS011;40937;53.594;10.034;2022-08-19T00:51:19;21.70;;;18.80;;
55037;SDS011;40937;53.594;10.034;2022-08-19T00:53:48;22.75;;;17.98;;
55037;SDS011;40937;53.594;10.034;2022-08-19T00:56:15;21.33;;;19.00;;
55037;SDS011;40937;53.594;10.034;2022-08-19T00:58:42;19.55;;;17.50;;
55037;SDS011;40937;53.594;10.034;2022-08-19T01:01:09;20.10;;;17.92;;
55037;SDS011;40937;53.594;10.034;2022-08-19T01:03:36;20.77;;;18.63;;
55037;SDS011;40937;53.594;10.034;2022-08-19T01:06:03;25.20;;;19.33;;
55037;SDS011;40937;53.594;10.034;2022-08-19T01:08:31;23.08;;;18.23;;
55037;SDS011;40937;53.594;10.034;2022-08-19T01:10:59;32.45;;;17.73;;
55037;SDS011;40937;53.594;10.034;2022-08-19T01:13:28;27.83;;;18.38;;
55037;SDS011;40937;53.594;10.034;2022-08-19T01:15:58;20.48;;;18.13;;
55037;SDS011;40937;53.594;10.034;2022-08-19T01:18:29;21.23;;;17.55;;
55037;SDS011;40937;53.594;10.034;2022-08-19T01:20:58;19.80;;;17.17;;
55037;SDS011;40937;53.594;10.034;2022-08-19T01:23:30;18.83;;;16.73;;
55037;SDS011;40937;53.594;10.034;2022-08-19T01:26:09;24.05;;;17.65;;
55037;SDS011;40937;53.594;10.034;2022-08-19T01:28:37;20.02;;;16.55;;
55037;SDS011;40937;53.594;10.034;2022-08-19T01:31:05;19.50;;;16.63;;
55037;SDS011;40937;53.594;10.034;2022-08-19T01:33:32;18.65;;;16.70;;
55037;SDS011;40937;53.594;10.034;2022-08-19T01:36:06;22.13;;;17.98;;
55037;SDS011;40937;53.594;10.034;2022-08-19T01:38:37;18.20;;;16.20;;
55037;SDS011;40937;53.594;10.034;2022-08-19T01:41:06;19.40;;;17.35;;
55037;SDS011;40937;53.594;10.034;2022-08-19T01:43:33;18.80;;;16.63;;
55037;SDS011;40937;53.594;10.034;2022-08-19T01:46:00;18.50;;;14.98;;
55037;SDS011;40937;53.594;10.034;2022-08-19T01:48:32;17.55;;;15.90;;
55037;SDS011;40937;53.594;10.034;2022-08-19T01:50:59;18.02;;;15.55;;
55037;SDS011;40937;53.594;10.034;2022-08-19T01:53:26;28.92;;;16.83;;
55037;SDS011;40937;53.594;10.034;2022-08-19T01:55:54;21.13;;;17.27;;
55037;SDS011;40937;53.594;10.034;2022-08-19T01:58:22;18.65;;;16.25;;
55037;SDS011;40937;53.594;10.034;2022-08-19T02:00:56;21.50;;;16.08;;
55037;SDS011;40937;53.594;10.034;2022-08-19T02:03:23;24.02;;;16.88;;
55037;SDS011;40937;53.594;10.034;2022-08-19T02:05:53;20.90;;;18.77;;
55037;SDS011;40937;53.594;10.034;2022-08-19T02:08:21;20.75;;;17.90;;
55037;SDS011;40937;53.594;10.034;2022-08-19T02:10:48;22.10;;;19.25;;
55037;SDS011;40937;53.594;10.034;2022-08-19T02:13:17;22.92;;;20.52;;
55037;SDS011;40937;53.594;10.034;2022-08-19T02:15:44;22.92;;;19.70;;
55037;SDS011;40937;53.594;10.034;2022-08-19T02:18:10;28.45;;;20.42;;
55037;SDS011;40937;53.594;10.034;2022-08-19T02:20:37;30.20;;;21.20;;
55037;SDS011;40937;53.594;10.034;2022-08-19T02:23:05;23.90;;;21.35;;
55037;SDS011;40937;53.594;10.034;2022-08-19T02:25:32;22.38;;;20.02;;
55037;SDS011;40937;53.594;10.034;2022-08-19T02:27:59;23.25;;;19.67;;
55037;SDS011;40937;53.594;10.034;2022-08-19T02:30:27;23.42;;;19.73;;
55037;SDS011;40937;53.594;10.034;2022-08-19T02:32:54;24.10;;;20.02;;
55037;SDS011;40937;53.594;10.034;2022-08-19T02:35:21;24.27;;;21.40;;
55037;SDS011;40937;53.594;10.034;2022-08-19T02:37:48;23.48;;;20.10;;
55037;SDS011;40937;53.594;10.034;2022-08-19T02:40:32;24.33;;;20.02;;
55037;SDS011;40937;53.594;10.034;2022-08-19T02:43:00;25.98;;;21.25;;
55037;SDS011;40937;53.594;10.034;2022-08-19T02:45:30;26.90;;;22.08;;
55037;SDS011;40937;53.594;10.034;2022-08-19T02:47:58;26.10;;;20.15;;
55037;SDS011;40937;53.594;10.034;2022-08-19T02:50:24;30.90;;;21.23;;
55037;SDS011;40937;53.594;10.034;2022-08-19T02:52:51;35.67;;;22.23;;
55037;SDS011;40937;53.594;10.034;2022-08-19T02:55:18;36.25;;;21.95;;
55037;SDS011;40937;53.594;10.034;2022-08-19T02:57:45;32.72;;;23.05;;
55037;SDS011;40937;53.594;10.034;2022-08-19T03:00:13;35.25;;;22.42;;
55037;SDS011;40937;53.594;10.034;2022-08-19T03:02:42;34.10;;;22.73;;
55037;SDS011;40937;53.594;10.034;2022-08-19T03:05:09;39.10;;;23.92;;
55037;SDS011;40937;53.594;10.034;2022-08-19T03:07:36;38.95;;;25.23;;
55037;SDS011;40937;53.594;10.034;2022-08-19T03:10:03;33.25;;;23.45;;
55037;SDS011;40937;53.594;10.034;2022-08-19T03:12:34;35.10;;;23.92;;
55037;SDS011;40937;53.594;10.034;2022-08-19T03:15:02;37.25;;;24.58;;
55037;SDS011;40937;53.594;10.034;2022-08-19T03:17:29;37.30;;;25.33;;
55037;SDS011;40937;53.594;10.034;2022-08-19T03:19:57;34.70;;;24.75;;
55037;SDS011;40937;53.594;10.034;2022-08-19T03:22:24;39.00;;;24.85;;
55037;SDS011;40937;53.594;10.034;2022-08-19T03:24:51;36.05;;;24.80;;
55037;SDS011;40937;53.594;10.034;2022-08-19T03:27:18;36.67;;;24.33;;
55037;SDS011;40937;53.594;10.034;2022-08-19T03:29:45;35.85;;;22.90;;
55037;SDS011;40937;53.594;10.034;2022-08-19T03:32:13;38.05;;;24.17;;
55037;SDS011;40937;53.594;10.034;2022-08-19T03:34:39;36.83;;;24.38;;
55037;SDS011;40937;53.594;10.034;2022-08-19T03:37:08;35.60;;;25.65;;
55037;SDS011;40937;53.594;10.034;2022-08-19T03:39:37;38.08;;;23.80;;
55037;SDS011;40937;53.594;10.034;2022-08-19T03:42:05;39.70;;;24.58;;
55037;SDS011;40937;53.594;10.034;2022-08-19T03:44:32;37.72;;;24.88;;
55037;SDS011;40937;53.594;10.034;2022-08-19T03:47:01;38.17;;;24.45;;
55037;SDS011;40937;53.594;10.034;2022-08-19T03:49:29;39.03;;;24.50;;
55037;SDS011;40937;53.594;10.034;2022-08-19T03:51:58;38.58;;;24.25;;
55037;SDS011;40937;53.594;10.034;2022-08-19T03:54:27;40.55;;;24.88;;
55037;SDS011;40937;53.594;10.034;2022-08-19T03:56:54;38.47;;;23.80;;
55037;SDS011;40937;53.594;10.034;2022-08-19T03:59:23;43.63;;;24.58;;
55037;SDS011;40937;53.594;10.034;2022-08-19T04:01:52;33.42;;;24.08;;
55037;SDS011;40937;53.594;10.034;2022-08-19T04:04:20;36.03;;;23.33;;
55037;SDS011;40937;53.594;10.034;2022-08-19T04:06:47;42.28;;;24.08;;
55037;SDS011;40937;53.594;10.034;2022-08-19T04:09:14;43.75;;;24.17;;
55037;SDS011;40937;53.594;10.034;2022-08-19T04:11:44;37.47;;;23.92;;
55037;SDS011;40937;53.594;10.034;2022-08-19T04:14:14;33.72;;;21.83;;
55037;SDS011;40937;53.594;10.034;2022-08-19T04:16:42;37.60;;;22.42;;
55037;SDS011;40937;53.594;10.034;2022-08-19T04:19:10;34.63;;;21.88;;
55037;SDS011;40937;53.594;10.034;2022-08-19T04:21:38;34.95;;;22.55;;
55037;SDS011;40937;53.594;10.034;2022-08-19T04:24:05;34.55;;;23.10;;
55037;SDS011;40937;53.594;10.034;2022-08-19T04:26:33;30.23;;;22.23;;
55037;SDS011;40937;53.594;10.034;2022-08-19T04:29:05;36.67;;;23.20;;
55037;SDS011;40937;53.594;10.034;2022-08-19T04:31:34;36.15;;;22.48;;
55037;SDS011;40937;53.594;10.034;2022-08-19T04:34:02;31.50;;;22.95;;
55037;SDS011;40937;53.594;10.034;2022-08-19T04:36:34;30.63;;;22.15;;
55037;SDS011;40937;53.594;10.034;2022-08-19T04:39:04;32.13;;;25.15;;
55037;SDS011;40937;53.594;10.034;2022-08-19T04:41:32;30.27;;;24.98;;
55037;SDS011;40937;53.594;10.034;2022-08-19T04:44:17;51.97;;;27.85;;
55037;SDS011;40937;53.594;10.034;2022-08-19T04:46:45;36.75;;;24.38;;
55037;SDS011;40937;53.594;10.034;2022-08-19T04:49:13;36.08;;;26.90;;
55037;SDS011;40937;53.594;10.034;2022-08-19T04:51:42;42.40;;;28.98;;
55037;SDS011;40937;53.594;10.034;2022-08-19T04:54:10;41.53;;;27.88;;
55037;SDS011;40937;53.594;10.034;2022-08-19T04:56:38;38.97;;;28.40;;
55037;SDS011;40937;53.594;10.034;2022-08-19T04:59:05;37.70;;;25.55;;
55037;SDS011;40937;53.594;10.034;2022-08-19T05:01:34;40.65;;;27.45;;
55037;SDS011;40937;53.594;10.034;2022-08-19T05:04:02;39.08;;;27.92;;
55037;SDS011;40937;53.594;10.034;2022-08-19T05:06:31;50.25;;;28.38;;
55037;SDS011;40937;53.594;10.034;2022-08-19T05:08:59;42.85;;;29.02;;
55037;SDS011;40937;53.594;10.034;2022-08-19T05:11:27;44.15;;;27.30;;
55037;SDS011;40937;53.594;10.034;2022-08-19T05:13:55;39.42;;;27.60;;
55037;SDS011;40937;53.594;10.034;2022-08-19T05:16:23;37.83;;;27.40;;
55037;SDS011;40937;53.594;10.034;2022-08-19T05:18:53;40.85;;;27.20;;
55037;SDS011;40937;53.594;10.034;2022-08-19T05:21:38;42.30;;;29.45;;
55037;SDS011;40937;53.594;10.034;2022-08-19T05:24:24;45.80;;;30.38;;
55037;SDS011;40937;53.594;10.034;2022-08-19T05:26:51;47.33;;;30.45;;
55037;SDS011;40937;53.594;10.034;2022-08-19T05:29:22;46.78;;;32.70;;
55037;SDS011;40937;53.594;10.034;2022-08-19T05:31:52;46.80;;;32.67;;
55037;SDS011;40937;53.594;10.034;2022-08-19T05:34:21;51.58;;;32.38;;
55037;SDS011;40937;53.594;10.034;2022-08-19T05:36:50;44.20;;;31.52;;
55037;SDS011;40937;53.594;10.034;2022-08-19T05:39:23;50.58;;;34.17;;
55037;SDS011;40937;53.594;10.034;2022-08-19T05:41:52;40.65;;;31.30;;
55037;SDS011;40937;53.594;10.034;2022-08-19T05:44:22;56.65;;;33.67;;
55037;SDS011;40937;53.594;10.034;2022-08-19T05:46:49;47.05;;;32.28;;
55037;SDS011;40937;53.594;10.034;2022-08-19T05:49:19;38.53;;;31.38;;
55037;SDS011;40937;53.594;10.034;2022-08-19T05:51:50;57.08;;;32.45;;
55037;SDS011;40937;53.594;10.034;2022-08-19T05:54:17;52.92;;;32.33;;
55037;SDS011;40937;53.594;10.034;2022-08-19T05:56:45;60.05;;;29.98;;
55037;SDS011;40937;53.594;10.034;2022-08-19T05:59:12;41.40;;;31.35;;
55037;SDS011;40937;53.594;10.034;2022-08-19T06:01:41;43.78;;;30.17;;
55037;SDS011;40937;53.594;10.034;2022-08-19T06:04:09;38.35;;;28.83;;
55037;SDS011;40937;53.594;10.034;2022-08-19T06:06:39;44.65;;;29.52;;
55037;SDS011;40937;53.594;10.034;2022-08-19T06:09:06;32.38;;;27.60;;
55037;SDS011;40937;53.594;10.034;2022-08-19T06:11:36;39.35;;;30.83;;
55037;SDS011;40937;53.594;10.034;2022-08-19T06:14:05;44.25;;;30.05;;
55037;SDS011;40937;53.594;10.034;2022-08-19T06:16:34;37.33;;;29.48;;
55037;SDS011;40937;53.594;10.034;2022-08-19T06:19:04;38.78;;;29.60;;
55037;SDS011;40937;53.594;10.034;2022-08-19T06:21:33;40.72;;;29.70;;
55037;SDS011;40937;53.594;10.034;2022-08-19T06:24:04;47.95;;;29.30;;
55037;SDS011;40937;53.594;10.034;2022-08-19T06:26:33;38.78;;;29.98;;
55037;SDS011;40937;53.594;10.034;2022-08-19T06:29:00;37.08;;;28.90;;
55037;SDS011;40937;53.594;10.034;2022-08-19T06:31:27;38.60;;;28.80;;
55037;SDS011;40937;53.594;10.034;2022-08-19T06:33:56;36.53;;;28.73;;
55037;SDS011;40937;53.594;10.034;2022-08-19T06:36:24;40.25;;;29.88;;
55037;SDS011;40937;53.594;10.034;2022-08-19T06:38:56;42.15;;;31.02;;
55037;SDS011;40937;53.594;10.034;2022-08-19T06:41:25;38.67;;;29.33;;
55037;SDS011;40937;53.594;10.034;2022-08-19T06:43:52;42.20;;;31.55;;
55037;SDS011;40937;53.594;10.034;2022-08-19T06:46:19;42.42;;;31.85;;
55037;SDS011;40937;53.594;10.034;2022-08-19T06:48:47;43.60;;;31.42;;
55037;SDS011;40937;53.594;10.034;2022-08-19T06:51:14;41.85;;;32.17;;
55037;SDS011;40937;53.594;10.034;2022-08-19T06:53:43;47.03;;;32.63;;
55037;SDS011;40937;53.594;10.034;2022-08-19T06:56:12;44.58;;;31.73;;
55037;SDS011;40937;53.594;10.034;2022-08-19T06:58:41;41.58;;;32.28;;
55037;SDS011;40937;53.594;10.034;2022-08-19T07:01:07;37.65;;;31.83;;
55037;SDS011;40937;53.594;10.034;2022-08-19T07:03:35;42.85;;;31.52;;
55037;SDS011;40937;53.594;10.034;2022-08-19T07:06:03;38.72;;;32.15;;
55037;SDS011;40937;53.594;10.034;2022-08-19T07:08:32;37.75;;;31.10;;
55037;SDS011;40937;53.594;10.034;2022-08-19T07:10:59;43.35;;;32.38;;
55037;SDS011;40937;53.594;10.034;2022-08-19T07:13:26;43.88;;;33.22;;
55037;SDS011;40937;53.594;10.034;2022-08-19T07:15:54;41.58;;;32.80;;
55037;SDS011;40937;53.594;10.034;2022-08-19T07:18:20;46.60;;;33.90;;
55037;SDS011;40937;53.594;10.034;2022-08-19T07:20:48;51.65;;;34.65;;
55037;SDS011;40937;53.594;10.034;2022-08-19T07:23:14;44.33;;;34.20;;
55037;SDS011;40937;53.594;10.034;2022-08-19T07:25:41;42.03;;;31.80;;
55037;SDS011;40937;53.594;10.034;2022-08-19T07:28:08;40.92;;;32.92;;
55037;SDS011;40937;53.594;10.034;2022-08-19T07:30:38;41.55;;;33.80;;
55037;SDS011;40937;53.594;10.034;2022-08-19T07:33:07;48.70;;;32.08;;
55037;SDS011;40937;53.594;10.034;2022-08-19T07:35:34;44.08;;;32.75;;
55037;SDS011;40937;53.594;10.034;2022-08-19T07:38:00;44.30;;;33.60;;
55037;SDS011;40937;53.594;10.034;2022-08-19T07:40:29;43.53;;;31.92;;
55037;SDS011;40937;53.594;10.034;2022-08-19T07:42:56;53.30;;;31.40;;
55037;SDS011;40937;53.594;10.034;2022-08-19T07:45:23;39.22;;;30.38;;
55037;SDS011;40937;53.594;10.034;2022-08-19T07:47:50;36.70;;;30.70;;
55037;SDS011;40937;53.594;10.034;2022-08-19T07:50:19;38.90;;;30.35;;
55037;SDS011;40937;53.594;10.034;2022-08-19T07:52:47;39.53;;;27.77;;
55037;SDS011;40937;53.594;10.034;2022-08-19T07:55:14;41.78;;;30.30;;
55037;SDS011;40937;53.594;10.034;2022-08-19T07:57:43;41.03;;;28.30;;
55037;SDS011;40937;53.594;10.034;2022-08-19T08:00:10;36.58;;;29.60;;
55037;SDS011;40937;53.594;10.034;2022-08-19T08:02:39;38.47;;;27.90;;
55037;SDS011;40937;53.594;10.034;2022-08-19T08:05:08;31.70;;;28.30;;
55037;SDS011;40937;53.594;10.034;2022-08-19T08:07:56;32.95;;;25.70;;
55037;SDS011;40937;53.594;10.034;2022-08-19T08:10:40;32.80;;;26.63;;
55037;SDS011;40937;53.594;10.034;2022-08-19T08:13:07;30.52;;;27.30;;
55037;SDS011;40937;53.594;10.034;2022-08-19T08:15:34;31.70;;;26.17;;
55037;SDS011;40937;53.594;10.034;2022-08-19T08:18:03;31.52;;;28.08;;
55037;SDS011;40937;53.594;10.034;2022-08-19T08:20:30;34.60;;;25.77;;
55037;SDS011;40937;53.594;10.034;2022-08-19T08:22:58;31.40;;;26.85;;
55037;SDS011;40937;53.594;10.034;2022-08-19T08:25:42;28.67;;;23.85;;
55037;SDS011;40937;53.594;10.034;2022-08-19T08:28:09;31.08;;;25.08;;
55037;SDS011;40937;53.594;10.034;2022-08-19T08:30:36;24.67;;;22.15;;
55037;SDS011;40937;53.594;10.034;2022-08-19T08:33:06;25.58;;;21.40;;
55037;SDS011;40937;53.594;10.034;2022-08-19T08:35:33;29.60;;;24.30;;
55037;SDS011;40937;53.594;10.034;2022-08-19T08:38:01;27.23;;;24.10;;
55037;SDS011;40937;53.594;10.034;2022-08-19T08:40:30;33.25;;;23.92;;
55037;SDS011;40937;53.594;10.034;2022-08-19T08:43:06;30.20;;;22.52;;
55037;SDS011;40937;53.594;10.034;2022-08-19T08:45:50;31.45;;;23.38;;
55037;SDS011;40937;53.594;10.034;2022-08-19T08:48:23;27.05;;;23.85;;
55037;SDS011;40937;53.594;10.034;2022-08-19T08:51:03;30.00;;;24.02;;
55037;SDS011;40937;53.594;10.034;2022-08-19T08:53:37;26.95;;;21.80;;
55037;SDS011;40937;53.594;10.034;2022-08-19T08:56:06;26.38;;;22.17;;
55037;SDS011;40937;53.594;10.034;2022-08-19T08:58:40;26.58;;;21.23;;
55037;SDS011;40937;53.594;10.034;2022-08-19T09:01:14;28.05;;;19.98;;
55037;SDS011;40937;53.594;10.034;2022-08-19T09:03:41;20.13;;;18.10;;
55037;SDS011;40937;53.594;10.034;2022-08-19T09:06:12;18.83;;;16.95;;
55037;SDS011;40937;53.594;10.034;2022-08-19T09:08:54;21.38;;;16.25;;
55037;SDS011;40937;53.594;10.034;2022-08-19T09:11:31;32.25;;;15.85;;
55037;SDS011;40937;53.594;10.034;2022-08-19T09:14:07;19.00;;;16.33;;
55037;SDS011;40937;53.594;10.034;2022-08-19T09:16:40;17.30;;;14.80;;
55037;SDS011;40937;53.594;10.034;2022-08-19T09:19:07;21.30;;;16.90;;
55037;SDS011;40937;53.594;10.034;2022-08-19T09:21:37;18.30;;;15.55;;
55037;SDS011;40937;53.594;10.034;2022-08-19T09:24:06;25.58;;;18.27;;
55037;SDS011;40937;53.594;10.034;2022-08-19T09:26:33;27.08;;;18.70;;
55037;SDS011;40937;53.594;10.034;2022-08-19T09:29:00;24.50;;;18.48;;
55037;SDS011;40937;53.594;10.034;2022-08-19T09:31:30;27.13;;;18.73;;
55037;SDS011;40937;53.594;10.034;2022-08-19T09:33:58;22.35;;;18.80;;
55037;SDS011;40937;53.594;10.034;2022-08-19T09:36:28;19.50;;;17.45;;
55037;SDS011;40937;53.594;10.034;2022-08-19T09:38:58;27.45;;;18.80;;
55037;SDS011;40937;53.594;10.034;2022-08-19T09:41:29;25.48;;;18.05;;
55037;SDS011;40937;53.594;10.034;2022-08-19T09:43:57;22.20;;;17.25;;
55037;SDS011;40937;53.594;10.034;2022-08-19T09:46:26;24.65;;;16.23;;
55037;SDS011;40937;53.594;10.034;2022-08-19T09:48:56;15.38;;;13.77;;
55037;SDS011;40937;53.594;10.034;2022-08-19T09:51:25;18.40;;;14.90;;
55037;SDS011;40937;53.594;10.034;2022-08-19T09:53:53;23.40;;;17.33;;
55037;SDS011;40937;53.594;10.034;2022-08-19T09:56:21;21.38;;;15.45;;
55037;SDS011;40937;53.594;10.034;2022-08-19T09:58:50;26.17;;;16.70;;
55037;SDS011;40937;53.594;10.034;2022-08-19T10:01:17;25.17;;;15.38;;
55037;SDS011;40937;53.594;10.034;2022-08-19T10:03:47;23.45;;;15.00;;
55037;SDS011;40937;53.594;10.034;2022-08-19T10:06:15;22.27;;;15.50;;
55037;SDS011;40937;53.594;10.034;2022-08-19T10:08:43;20.52;;;12.52;;
55037;SDS011;40937;53.594;10.034;2022-08-19T10:11:10;17.65;;;14.50;;
55037;SDS011;40937;53.594;10.034;2022-08-19T10:13:39;19.25;;;15.27;;
55037;SDS011;40937;53.594;10.034;2022-08-19T10:16:08;27.05;;;16.02;;
55037;SDS011;40937;53.594;10.034;2022-08-19T10:18:37;21.45;;;14.95;;
55037;SDS011;40937;53.594;10.034;2022-08-19T10:21:05;22.48;;;15.38;;
55037;SDS011;40937;53.594;10.034;2022-08-19T10:23:35;18.77;;;16.33;;
55037;SDS011;40937;53.594;10.034;2022-08-19T10:26:03;19.38;;;15.60;;
55037;SDS011;40937;53.594;10.034;2022-08-19T10:28:33;20.60;;;16.60;;
55037;SDS011;40937;53.594;10.034;2022-08-19T10:31:05;17.80;;;14.93;;
55037;SDS011;40937;53.594;10.034;2022-08-19T10:33:36;20.48;;;14.50;;
55037;SDS011;40937;53.594;10.034;2022-08-19T10:36:05;19.15;;;15.35;;
55037;SDS011;40937;53.594;10.034;2022-08-19T10:38:34;22.35;;;14.13;;
55037;SDS011;40937;53.594;10.034;2022-08-19T10:41:06;19.10;;;13.48;;
55037;SDS011;40937;53.594;10.034;2022-08-19T10:43:34;19.25;;;17.23;;
55037;SDS011;40937;53.594;10.034;2022-08-19T10:46:03;25.38;;;17.83;;
55037;SDS011;40937;53.594;10.034;2022-08-19T10:48:32;24.58;;;17.13;;
55037;SDS011;40937;53.594;10.034;2022-08-19T10:51:00;25.17;;;15.50;;
55037;SDS011;40937;53.594;10.034;2022-08-19T10:53:44;17.75;;;15.70;;
55037;SDS011;40937;53.594;10.034;2022-08-19T10:56:11;21.27;;;16.20;;
55037;SDS011;40937;53.594;10.034;2022-08-19T10:58:56;25.52;;;15.45;;
55037;SDS011;40937;53.594;10.034;2022-08-19T11:01:23;24.83;;;15.85;;
55037;SDS011;40937;53.594;10.034;2022-08-19T11:03:51;20.17;;;15.77;;
55037;SDS011;40937;53.594;10.034;2022-08-19T11:06:18;22.88;;;17.00;;
55037;SDS011;40937;53.594;10.034;2022-08-19T11:08:45;23.17;;;18.70;;
55037;SDS011;40937;53.594;10.034;2022-08-19T11:11:12;21.67;;;16.92;;
55037;SDS011;40937;53.594;10.034;2022-08-19T11:13:39;28.48;;;16.75;;
55037;SDS011;40937;53.594;10.034;2022-08-19T11:16:09;24.73;;;18.58;;
55037;SDS011;40937;53.594;10.034;2022-08-19T11:18:40;24.80;;;19.27;;
55037;SDS011;40937;53.594;10.034;2022-08-19T11:21:13;21.60;;;16.35;;
55037;SDS011;40937;53.594;10.034;2022-08-19T11:23:44;21.95;;;17.30;;
55037;SDS011;40937;53.594;10.034;2022-08-19T11:26:12;22.33;;;19.35;;
55037;SDS011;40937;53.594;10.034;2022-08-19T11:28:39;18.23;;;15.98;;
55037;SDS011;40937;53.594;10.034;2022-08-19T11:31:12;22.25;;;16.70;;
55037;SDS011;40937;53.594;10.034;2022-08-19T11:33:39;19.30;;;16.98;;
55037;SDS011;40937;53.594;10.034;2022-08-19T11:36:07;23.27;;;19.25;;
55037;SDS011;40937;53.594;10.034;2022-08-19T11:38:35;18.20;;;16.40;;
55037;SDS011;40937;53.594;10.034;2022-08-19T11:41:06;22.00;;;17.13;;
55037;SDS011;40937;53.594;10.034;2022-08-19T11:43:33;16.30;;;13.27;;
55037;SDS011;40937;53.594;10.034;2022-08-19T11:46:03;20.10;;;15.20;;
55037;SDS011;40937;53.594;10.034;2022-08-19T11:48:31;17.52;;;15.10;;
55037;SDS011;40937;53.594;10.034;2022-08-19T11:50:58;14.40;;;12.88;;
55037;SDS011;40937;53.594;10.034;2022-08-19T11:53:25;20.23;;;14.57;;
55037;SDS011;40937;53.594;10.034;2022-08-19T11:55:53;17.52;;;15.68;;
55037;SDS011;40937;53.594;10.034;2022-08-19T11:58:21;19.42;;;14.52;;
55037;SDS011;40937;53.594;10.034;2022-08-19T12:00:50;18.50;;;14.88;;
55037;SDS011;40937;53.594;10.034;2022-08-19T12:03:17;14.07;;;12.82;;
55037;SDS011;40937;53.594;10.034;2022-08-19T12:05:44;14.43;;;12.85;;
55037;SDS011;40937;53.594;10.034;2022-08-19T12:08:15;15.27;;;13.73;;
55037;SDS011;40937;53.594;10.034;2022-08-19T12:10:42;12.70;;;10.32;;
55037;SDS011;40937;53.594;10.034;2022-08-19T12:13:14;14.18;;;12.00;;
55037;SDS011;40937;53.594;10.034;2022-08-19T12:15:45;14.68;;;13.15;;
55037;SDS011;40937;53.594;10.034;2022-08-19T12:18:13;14.07;;;12.73;;
55037;SDS011;40937;53.594;10.034;2022-08-19T12:20:42;14.30;;;12.70;;
55037;SDS011;40937;53.594;10.034;2022-08-19T12:23:14;16.00;;;13.25;;
55037;SDS011;40937;53.594;10.034;2022-08-19T12:25:44;13.50;;;12.13;;
55037;SDS011;40937;53.594;10.034;2022-08-19T12:28:16;12.23;;;11.02;;
55037;SDS011;40937;53.594;10.034;2022-08-19T12:30:43;15.20;;;12.60;;
55037;SDS011;40937;53.594;10.034;2022-08-19T12:33:10;17.75;;;11.15;;
55037;SDS011;40937;53.594;10.034;2022-08-19T12:35:39;22.90;;;13.13;;
55037;SDS011;40937;53.594;10.034;2022-08-19T12:38:06;15.05;;;12.88;;
55037;SDS011;40937;53.594;10.034;2022-08-19T12:40:33;11.73;;;10.50;;
55037;SDS011;40937;53.594;10.034;2022-08-19T12:42:59;12.65;;;10.52;;
55037;SDS011;40937;53.594;10.034;2022-08-19T12:45:27;12.60;;;11.00;;
55037;SDS011;40937;53.594;10.034;2022-08-19T12:47:54;14.63;;;12.55;;
55037;SDS011;40937;53.594;10.034;2022-08-19T12:50:21;15.63;;;12.18;;
55037;SDS011;40937;53.594;10.034;2022-08-19T12:52:49;12.73;;;11.35;;
55037;SDS011;40937;53.594;10.034;2022-08-19T12:55:16;13.80;;;12.35;;
55037;SDS011;40937;53.594;10.034;2022-08-19T12:57:44;13.07;;;11.63;;
55037;SDS011;40937;53.594;10.034;2022-08-19T13:00:14;25.17;;;11.43;;
55037;SDS011;40937;53.594;10.034;2022-08-19T13:02:45;13.73;;;11.15;;
55037;SDS011;40937;53.594;10.034;2022-08-19T13:05:18;11.73;;;10.63;;
55037;SDS011;40937;53.594;10.034;2022-08-19T13:07:49;13.00;;;11.75;;
55037;SDS011;40937;53.594;10.034;2022-08-19T13:10:17;12.18;;;11.07;;
55037;SDS011;40937;53.594;10.034;2022-08-19T13:12:48;12.43;;;11.43;;
55037;SDS011;40937;53.594;10.034;2022-08-19T13:15:17;12.15;;;10.75;;
55037;SDS011;40937;53.594;10.034;2022-08-19T13:17:48;11.13;;;10.27;;
55037;SDS011;40937;53.594;10.034;2022-08-19T13:22:49;15.65;;;10.45;;
55037;SDS011;40937;53.594;10.034;2022-08-19T13:25:20;11.38;;;10.35;;
55037;SDS011;40937;53.594;10.034;2022-08-19T13:27:48;11.35;;;10.15;;
55037;SDS011;40937;53.594;10.034;2022-08-19T13:30:18;11.73;;;10.52;;
55037;SDS011;40937;53.594;10.034;2022-08-19T13:33:05;10.45;;;9.35;;
55037;SDS011;40937;53.594;10.034;2022-08-19T13:35:40;11.30;;;10.20;;
55037;SDS011;40937;53.594;10.034;2022-08-19T13:38:09;11.65;;;10.15;;
55037;SDS011;40937;53.594;10.034;2022-08-19T13:40:39;14.18;;;10.60;;
55037;SDS011;40937;53.594;10.034;2022-08-19T13:43:08;14.15;;;11.70;;
55037;SDS011;40937;53.594;10.034;2022-08-19T13:45:35;11.57;;;10.65;;
55037;SDS011;40937;53.594;10.034;2022-08-19T13:48:03;11.85;;;10.65;;
55037;SDS011;40937;53.594;10.034;2022-08-19T13:50:38;15.50;;;10.32;;
55037;SDS011;40937;53.594;10.034;2022-08-19T13:53:09;10.25;;;9.45;;
55037;SDS011;40937;53.594;10.034;2022-08-19T13:55:37;11.93;;;10.70;;
55037;SDS011;40937;53.594;10.034;2022-08-19T13:58:04;12.27;;;11.02;;
55037;SDS011;40937;53.594;10.034;2022-08-19T14:00:32;12.68;;;9.82;;
55037;SDS011;40937;53.594;10.034;2022-08-19T14:03:02;11.40;;;10.30;;
55037;SDS011;40937;53.594;10.034;2022-08-19T14:05:30;10.57;;;9.73;;
55037;SDS011;40937;53.594;10.034;2022-08-19T14:07:58;13.50;;;9.93;;
55037;SDS011;40937;53.594;10.034;2022-08-19T14:10:26;11.85;;;10.90;;
55037;SDS011;40937;53.594;10.034;2022-08-19T14:12:53;11.30;;;10.27;;
55037;SDS011;40937;53.594;10.034;2022-08-19T14:15:23;10.75;;;9.65;;
55037;SDS011;40937;53.594;10.034;2022-08-19T14:17:50;9.52;;;8.88;;
55037;SDS011;40937;53.594;10.034;2022-08-19T14:20:17;10.88;;;8.75;;
55037;SDS011;40937;53.594;10.034;2022-08-19T14:22:46;11.07;;;9.40;;